createdAt,value
2022-12-06T00:02:13.999Z,4.50
2022-12-06T00:05:02.312Z,4.60
2022-12-06T00:07:51.126Z,4.60
2022-12-06T00:10:39.269Z,4.60
2022-12-06T00:13:30.402Z,4.60
2022-12-06T00:16:19.291Z,4.60
2022-12-06T00:19:08.934Z,4.60
2022-12-06T00:21:58.254Z,4.60
2022-12-06T00:24:47.712Z,4.60
2022-12-06T00:27:36.166Z,4.60
2022-12-06T00:30:24.073Z,4.70
2022-12-06T00:33:12.820Z,4.80
2022-12-06T00:36:03.358Z,4.70
2022-12-06T00:38:51.606Z,4.60
2022-12-06T00:41:40.008Z,4.70
2022-12-06T00:44:28.137Z,4.70
2022-12-06T00:47:16.648Z,4.70
2022-12-06T00:50:05.057Z,4.70
2022-12-06T00:52:54.493Z,4.70
2022-12-06T00:55:44.042Z,4.80
2022-12-06T00:58:32.497Z,4.60
2022-12-06T01:01:21.850Z,4.70
2022-12-06T01:04:09.904Z,6.20
2022-12-06T01:06:59.269Z,4.70
2022-12-06T01:09:49.309Z,4.60
2022-12-06T01:12:37.408Z,4.70
2022-12-06T01:15:25.363Z,4.70
2022-12-06T01:18:14.789Z,4.70
2022-12-06T01:21:04.951Z,4.70
2022-12-06T01:23:56.126Z,4.80
2022-12-06T01:26:54.429Z,4.70
2022-12-06T01:29:49.267Z,4.70
2022-12-06T01:32:42.617Z,5.00
2022-12-06T01:35:30.717Z,4.70
2022-12-06T01:38:21.548Z,4.70
2022-12-06T01:41:09.529Z,4.80
2022-12-06T01:43:59.839Z,5.50
2022-12-06T01:46:47.679Z,4.70
2022-12-06T01:49:37.213Z,4.70
2022-12-06T01:52:26.741Z,4.70
2022-12-06T01:55:14.890Z,4.70
2022-12-06T01:58:09.258Z,4.70
2022-12-06T02:00:59.023Z,4.80
2022-12-06T02:03:48.289Z,4.70
2022-12-06T02:06:36.638Z,4.70
2022-12-06T02:09:24.880Z,4.70
2022-12-06T02:12:14.260Z,4.70
2022-12-06T02:15:02.601Z,4.70
2022-12-06T02:17:58.678Z,4.70
2022-12-06T02:20:48.766Z,4.70
2022-12-06T02:23:43.051Z,4.70
2022-12-06T02:26:35.755Z,4.70
2022-12-06T02:29:40.463Z,4.70
2022-12-06T02:32:32.223Z,6.20
2022-12-06T02:35:25.444Z,4.60
2022-12-06T02:38:17.486Z,4.60
2022-12-06T02:41:10.306Z,4.60
2022-12-06T02:44:00.404Z,4.60
2022-12-06T02:46:50.260Z,4.60
2022-12-06T02:49:44.987Z,4.70
2022-12-06T02:52:38.543Z,4.70
2022-12-06T02:55:28.106Z,4.60
2022-12-06T02:58:16.770Z,4.70
2022-12-06T03:01:14.021Z,4.70
2022-12-06T03:04:13.296Z,4.60
2022-12-06T03:07:06.379Z,4.70
2022-12-06T03:10:00.991Z,4.50
2022-12-06T03:12:52.370Z,4.70
2022-12-06T03:15:45.057Z,4.70
2022-12-06T03:18:35.937Z,4.60
2022-12-06T03:21:28.310Z,4.70
2022-12-06T03:24:18.368Z,4.70
2022-12-06T03:27:07.769Z,4.70
2022-12-06T03:29:58.336Z,2.60
2022-12-06T03:32:48.582Z,4.70
2022-12-06T03:35:36.868Z,4.70
2022-12-06T03:38:28.214Z,4.60
2022-12-06T03:41:19.308Z,4.60
2022-12-06T03:44:06.798Z,4.70
2022-12-06T03:46:55.895Z,4.70
2022-12-06T03:49:46.392Z,4.70
2022-12-06T03:52:36.584Z,4.70
2022-12-06T03:55:25.238Z,4.80
2022-12-06T03:58:14.461Z,4.80
2022-12-06T04:01:05.093Z,4.70
2022-12-06T04:03:52.983Z,4.70
2022-12-06T04:06:40.595Z,4.80
2022-12-06T04:09:45.553Z,4.80
2022-12-06T04:12:51.368Z,4.50
2022-12-06T04:15:40.933Z,4.80
2022-12-06T04:18:27.697Z,4.70
2022-12-06T04:21:32.801Z,4.70
2022-12-06T04:24:21.107Z,4.70
2022-12-06T04:27:23.266Z,4.80
2022-12-06T04:30:29.143Z,4.70
2022-12-06T04:33:35.781Z,4.80
2022-12-06T04:36:41.285Z,4.80
2022-12-06T04:39:29.368Z,4.70
2022-12-06T04:42:34.130Z,4.70
2022-12-06T04:45:21.727Z,4.70
2022-12-06T04:48:11.286Z,4.70
2022-12-06T04:51:01.025Z,4.80
2022-12-06T04:53:48.929Z,4.60
2022-12-06T04:56:37.354Z,4.70
2022-12-06T04:59:25.657Z,4.70
2022-12-06T05:02:16.214Z,4.70
2022-12-06T05:05:04.543Z,4.70
2022-12-06T05:07:53.365Z,4.70
2022-12-06T05:10:41.696Z,4.70
2022-12-06T05:13:30.349Z,4.70
2022-12-06T05:16:18.572Z,4.70
2022-12-06T05:19:06.429Z,4.60
2022-12-06T05:21:54.381Z,5.80
2022-12-06T05:24:43.913Z,4.70
2022-12-06T05:27:35.957Z,4.70
2022-12-06T05:30:26.130Z,4.70
2022-12-06T05:33:13.888Z,4.70
2022-12-06T05:36:01.450Z,4.70
2022-12-06T05:38:51.635Z,4.70
2022-12-06T05:41:41.837Z,4.70
2022-12-06T05:44:29.774Z,4.80
2022-12-06T05:47:18.084Z,4.70
2022-12-06T05:50:05.922Z,4.60
2022-12-06T05:52:55.059Z,4.70
2022-12-06T05:55:42.794Z,4.70
2022-12-06T05:58:49.988Z,4.60
2022-12-06T06:01:38.035Z,4.70
2022-12-06T06:04:25.774Z,4.70
2022-12-06T06:07:14.439Z,4.70
2022-12-06T06:10:02.713Z,4.70
2022-12-06T06:12:53.676Z,6.80
2022-12-06T06:15:43.448Z,4.70
2022-12-06T06:18:30.876Z,4.70
2022-12-06T06:21:18.511Z,4.70
2022-12-06T06:24:06.379Z,4.60
2022-12-06T06:26:54.510Z,4.70
2022-12-06T06:29:45.455Z,4.60
2022-12-06T06:32:35.474Z,4.80
2022-12-06T06:35:23.178Z,4.70
2022-12-06T06:38:11.489Z,4.70
2022-12-06T06:41:02.912Z,4.60
2022-12-06T06:43:51.054Z,4.60
2022-12-06T06:46:41.757Z,4.60
2022-12-06T06:49:31.847Z,4.60
2022-12-06T06:52:20.197Z,4.50
2022-12-06T06:55:08.840Z,4.50
2022-12-06T06:57:57.074Z,4.50
2022-12-06T07:00:45.443Z,4.50
2022-12-06T07:03:33.323Z,4.40
2022-12-06T07:06:23.085Z,2.80
2022-12-06T07:09:10.704Z,4.50
2022-12-06T07:11:59.018Z,4.40
2022-12-06T07:14:46.777Z,4.50
2022-12-06T07:17:35.452Z,4.50
2022-12-06T07:20:23.964Z,4.50
2022-12-06T07:23:13.356Z,4.40
2022-12-06T07:26:02.011Z,4.50
2022-12-06T07:28:51.050Z,4.50
2022-12-06T07:31:40.506Z,4.50
2022-12-06T07:34:28.292Z,4.50
2022-12-06T07:37:18.375Z,4.40
2022-12-06T07:40:10.140Z,4.40
2022-12-06T07:43:14.824Z,4.40
2022-12-06T07:46:03.483Z,4.40
2022-12-06T07:48:51.431Z,4.40
2022-12-06T07:51:41.833Z,4.40
2022-12-06T07:54:29.356Z,4.30
2022-12-06T07:57:18.698Z,4.30
2022-12-06T08:00:07.593Z,4.40
2022-12-06T08:02:59.536Z,4.40
2022-12-06T08:05:54.579Z,4.40
2022-12-06T08:08:42.066Z,4.40
2022-12-06T08:11:29.904Z,4.40
2022-12-06T08:14:18.980Z,4.40
2022-12-06T08:17:06.851Z,4.50
2022-12-06T08:19:54.714Z,4.50
2022-12-06T08:22:43.767Z,4.40
2022-12-06T08:25:31.262Z,4.40
2022-12-06T08:28:22.193Z,4.40
2022-12-06T08:31:12.399Z,4.50
2022-12-06T08:34:02.686Z,4.50
2022-12-06T08:36:50.335Z,4.50
2022-12-06T08:39:38.069Z,4.60
2022-12-06T08:42:25.617Z,4.50
2022-12-06T08:45:13.161Z,4.60
2022-12-06T08:48:02.502Z,4.60
2022-12-06T08:50:50.301Z,4.60
2022-12-06T08:53:38.200Z,4.60
2022-12-06T08:56:26.079Z,4.70
2022-12-06T08:59:14.632Z,4.70
2022-12-06T09:02:02.455Z,4.70
2022-12-06T09:04:54.315Z,4.60
2022-12-06T09:07:42.158Z,4.60
2022-12-06T09:10:34.047Z,4.40
2022-12-06T09:13:22.021Z,4.60
2022-12-06T09:16:11.599Z,4.70
2022-12-06T09:18:59.323Z,4.70
2022-12-06T09:21:49.020Z,4.60
2022-12-06T09:24:37.031Z,4.80
2022-12-06T09:27:26.209Z,4.70
2022-12-06T09:30:14.028Z,4.90
2022-12-06T09:33:05.658Z,4.80
2022-12-06T09:35:53.600Z,4.90
2022-12-06T09:38:43.940Z,4.90
2022-12-06T09:41:50.282Z,5.10
2022-12-06T09:44:51.720Z,4.90
2022-12-06T09:47:48.206Z,4.90
2022-12-06T09:50:41.629Z,4.90
2022-12-06T09:53:36.294Z,5.00
2022-12-06T09:56:27.172Z,4.90
2022-12-06T09:59:20.832Z,5.00
2022-12-06T10:02:17.135Z,4.90
2022-12-06T10:05:12.261Z,5.00
2022-12-06T10:08:04.952Z,5.00
2022-12-06T10:11:05.350Z,5.10
2022-12-06T10:14:01.203Z,5.20
2022-12-06T10:16:55.452Z,4.20
2022-12-06T10:19:52.137Z,5.10
2022-12-06T10:22:51.203Z,5.10
2022-12-06T10:25:42.012Z,5.10
2022-12-06T10:28:36.575Z,5.10
2022-12-06T10:31:26.416Z,5.00
2022-12-06T10:34:22.129Z,4.90
2022-12-06T10:37:14.853Z,4.70
2022-12-06T10:40:05.205Z,4.60
2022-12-06T10:42:59.819Z,4.60
2022-12-06T10:46:09.666Z,4.40
2022-12-06T10:49:02.013Z,4.40
2022-12-06T10:51:55.918Z,4.40
2022-12-06T10:54:47.723Z,4.40
2022-12-06T10:57:42.827Z,4.40
2022-12-06T11:00:32.540Z,4.40
2022-12-06T11:03:21.914Z,4.40
2022-12-06T11:06:14.861Z,4.40
2022-12-06T11:09:13.674Z,4.60
2022-12-06T11:12:01.392Z,4.60
2022-12-06T11:14:51.194Z,4.60
2022-12-06T11:17:41.356Z,4.70
2022-12-06T11:20:31.698Z,4.70
2022-12-06T11:23:24.384Z,4.80
2022-12-06T11:26:23.312Z,4.80
2022-12-06T11:29:12.979Z,4.90
2022-12-06T11:32:04.167Z,5.00
2022-12-06T11:34:53.228Z,5.20
2022-12-06T11:37:44.680Z,5.40
2022-12-06T11:40:38.530Z,5.50
2022-12-06T11:43:35.508Z,5.60
2022-12-06T11:46:24.979Z,5.60
2022-12-06T11:49:17.377Z,5.60
2022-12-06T11:52:12.049Z,5.40
2022-12-06T11:55:02.705Z,5.30
2022-12-06T11:57:55.810Z,5.30
2022-12-06T12:00:57.068Z,5.40
2022-12-06T12:03:48.836Z,6.00
2022-12-06T12:06:38.432Z,5.80
2022-12-06T12:09:29.330Z,6.00
2022-12-06T12:12:18.593Z,6.20
2022-12-06T12:15:07.895Z,6.30
2022-12-06T12:18:00.398Z,6.40
2022-12-06T12:20:48.353Z,6.10
2022-12-06T12:23:37.614Z,6.10
2022-12-06T12:26:37.230Z,6.00
2022-12-06T12:29:25.251Z,5.90
2022-12-06T12:32:14.666Z,6.00
2022-12-06T12:35:19.366Z,3.60
2022-12-06T12:38:17.511Z,5.90
2022-12-06T12:41:12.876Z,5.90
2022-12-06T12:44:28.913Z,6.00
2022-12-06T12:47:18.501Z,5.80
2022-12-06T12:50:18.856Z,5.90
2022-12-06T12:53:29.622Z,7.60
2022-12-06T12:56:19.389Z,6.00
2022-12-06T12:59:15.677Z,6.10
2022-12-06T13:02:16.922Z,6.30
2022-12-06T13:05:32.228Z,6.30
2022-12-06T13:08:21.819Z,5.40
2022-12-06T13:11:11.229Z,6.00
2022-12-06T13:14:03.676Z,5.90
2022-12-06T13:16:53.843Z,5.80
2022-12-06T13:19:51.680Z,6.80
2022-12-06T13:22:47.540Z,5.90
2022-12-06T13:25:37.488Z,5.50
2022-12-06T13:28:30.731Z,6.30
2022-12-06T13:31:20.188Z,5.80
2022-12-06T13:34:17.129Z,6.00
2022-12-06T13:37:05.210Z,6.10
2022-12-06T13:39:58.106Z,6.30
2022-12-06T13:42:49.422Z,6.50
2022-12-06T13:45:42.413Z,8.70
2022-12-06T13:48:40.297Z,6.20
2022-12-06T13:51:48.385Z,6.70
2022-12-06T13:54:38.696Z,6.80
2022-12-06T13:57:36.141Z,6.90
2022-12-06T14:00:45.734Z,7.20
2022-12-06T14:03:44.878Z,7.10
2022-12-06T14:06:53.464Z,7.20
2022-12-06T14:09:43.708Z,8.30
2022-12-06T14:12:33.095Z,7.40
2022-12-06T14:15:22.592Z,7.80
2022-12-06T14:18:21.113Z,7.50
2022-12-06T14:21:26.779Z,7.40
2022-12-06T14:24:28.259Z,6.00
2022-12-06T14:27:16.601Z,6.80
2022-12-06T14:30:25.566Z,6.50
2022-12-06T14:33:20.927Z,6.60
2022-12-06T14:36:21.369Z,6.70
2022-12-06T14:39:10.247Z,6.90
2022-12-06T14:42:17.449Z,6.50
2022-12-06T14:45:08.305Z,6.40
2022-12-06T14:47:56.061Z,6.40
2022-12-06T14:50:45.978Z,7.60
2022-12-06T14:53:36.361Z,6.30
2022-12-06T14:56:29.371Z,7.90
2022-12-06T14:59:47.361Z,6.50
2022-12-06T15:02:31.714Z,6.30
2022-12-06T15:05:37.266Z,6.30
2022-12-06T15:08:35.262Z,6.20
2022-12-06T15:11:51.727Z,6.20
2022-12-06T15:14:48.355Z,6.20
2022-12-06T15:17:36.034Z,6.20
2022-12-06T15:20:27.013Z,6.30
2022-12-06T15:23:40.398Z,6.30
2022-12-06T15:26:30.005Z,5.90
2022-12-06T15:29:24.159Z,7.60
2022-12-06T15:32:20.585Z,5.80
2022-12-06T15:35:10.739Z,6.30
2022-12-06T15:37:58.950Z,6.10
2022-12-06T15:40:48.047Z,6.20
2022-12-06T15:43:38.429Z,6.10
2022-12-06T15:46:29.168Z,6.10
2022-12-06T15:49:25.379Z,6.00
2022-12-06T15:52:23.347Z,6.00
2022-12-06T15:55:17.128Z,6.00
2022-12-06T15:58:05.788Z,6.10
2022-12-06T16:01:04.372Z,6.00
2022-12-06T16:03:53.676Z,6.10
2022-12-06T16:06:43.956Z,5.90
2022-12-06T16:10:02.925Z,5.90
2022-12-06T16:13:11.421Z,5.90
2022-12-06T16:16:01.277Z,6.40
2022-12-06T16:18:49.382Z,6.70
2022-12-06T16:21:52.269Z,5.90
2022-12-06T16:24:43.143Z,6.20
2022-12-06T16:27:41.154Z,6.00
2022-12-06T16:30:39.869Z,5.80
2022-12-06T16:33:33.025Z,5.90
2022-12-06T16:36:23.185Z,6.00
2022-12-06T16:39:14.871Z,6.20
2022-12-06T16:42:05.333Z,6.00
2022-12-06T16:44:55.935Z,5.80
2022-12-06T16:47:45.741Z,6.30
2022-12-06T16:50:36.308Z,5.90
2022-12-06T16:53:24.756Z,5.90
2022-12-06T16:56:12.381Z,5.90
2022-12-06T16:59:00.181Z,7.00
2022-12-06T17:01:49.417Z,6.00
2022-12-06T17:04:39.929Z,5.90
2022-12-06T17:07:39.342Z,5.90
2022-12-06T17:10:34.463Z,7.40
2022-12-06T17:13:22.920Z,7.50
2022-12-06T17:16:18.622Z,6.40
2022-12-06T17:19:09.957Z,5.80
2022-12-06T17:22:11.193Z,6.00
2022-12-06T17:25:03.664Z,5.80
2022-12-06T17:27:52.298Z,5.80
2022-12-06T17:30:50.891Z,5.80
2022-12-06T17:33:39.516Z,5.80
2022-12-06T17:36:27.898Z,8.20
2022-12-06T17:39:17.354Z,5.80
2022-12-06T17:42:24.534Z,5.80
2022-12-06T17:45:17.195Z,5.80
2022-12-06T17:48:07.058Z,5.80
2022-12-06T17:50:55.361Z,6.40
2022-12-06T17:53:42.963Z,5.80
2022-12-06T17:56:34.423Z,5.70
2022-12-06T17:59:24.655Z,5.70
2022-12-06T18:02:15.761Z,5.70
2022-12-06T18:05:08.370Z,5.50
2022-12-06T18:07:58.017Z,5.40
2022-12-06T18:10:48.361Z,6.20
2022-12-06T18:13:39.734Z,5.40
2022-12-06T18:16:29.628Z,5.40
2022-12-06T18:19:20.975Z,5.40
2022-12-06T18:22:08.707Z,5.50
2022-12-06T18:24:56.432Z,5.80
2022-12-06T18:27:44.999Z,5.50
2022-12-06T18:30:32.377Z,6.00
2022-12-06T18:33:25.364Z,5.50
2022-12-06T18:36:16.085Z,5.50
2022-12-06T18:39:10.916Z,5.50
2022-12-06T18:42:02.391Z,5.40
2022-12-06T18:44:51.465Z,5.00
2022-12-06T18:47:42.677Z,5.50
2022-12-06T18:50:32.180Z,5.60
2022-12-06T18:53:20.005Z,5.50
2022-12-06T18:56:09.783Z,5.60
2022-12-06T18:58:59.031Z,5.80
2022-12-06T19:01:47.712Z,5.60
2022-12-06T19:04:35.611Z,5.40
2022-12-06T19:07:25.253Z,6.50
2022-12-06T19:10:13.930Z,5.40
2022-12-06T19:13:05.842Z,5.40
2022-12-06T19:16:05.186Z,5.60
2022-12-06T19:18:52.767Z,5.70
2022-12-06T19:21:44.802Z,5.40
2022-12-06T19:27:23.399Z,5.40
2022-12-06T19:30:11.512Z,5.40
2022-12-06T19:32:59.459Z,5.40
2022-12-06T19:35:56.790Z,7.10
2022-12-06T19:38:45.163Z,6.30
2022-12-06T19:41:54.348Z,5.40
2022-12-06T19:44:42.773Z,5.40
2022-12-06T19:47:33.129Z,5.40
2022-12-06T19:50:21.287Z,5.30
2022-12-06T19:53:11.360Z,5.40
2022-12-06T19:56:01.493Z,5.30
2022-12-06T19:58:50.170Z,5.10
2022-12-06T20:01:40.213Z,5.10
2022-12-06T20:04:30.763Z,5.20
2022-12-06T20:07:18.562Z,6.90
2022-12-06T20:10:09.801Z,5.10
2022-12-06T20:12:57.509Z,4.70
2022-12-06T20:15:46.194Z,4.90
2022-12-06T20:18:35.474Z,4.80
2022-12-06T20:21:27.920Z,4.80
2022-12-06T20:24:17.201Z,4.70
2022-12-06T20:27:05.823Z,4.80
2022-12-06T20:29:54.868Z,4.80
2022-12-06T20:32:43.915Z,4.90
2022-12-06T20:35:33.772Z,4.10
2022-12-06T20:38:25.421Z,4.20
2022-12-06T20:41:14.224Z,5.00
2022-12-06T20:44:05.019Z,5.40
2022-12-06T20:46:53.708Z,5.00
2022-12-06T20:49:41.511Z,5.00
2022-12-06T20:52:30.332Z,5.40
2022-12-06T20:55:18.288Z,5.10
2022-12-06T20:58:06.927Z,5.00
2022-12-06T21:00:57.148Z,5.00
2022-12-06T21:03:45.749Z,4.90
2022-12-06T21:06:35.881Z,5.00
2022-12-06T21:09:25.849Z,4.90
2022-12-06T21:12:13.788Z,5.60
2022-12-06T21:15:02.137Z,5.40
2022-12-06T21:17:50.195Z,4.90
2022-12-06T21:20:39.242Z,5.00
2022-12-06T21:23:28.363Z,5.10
2022-12-06T21:26:18.529Z,4.80
2022-12-06T21:29:07.059Z,4.70
2022-12-06T21:31:54.892Z,4.80
2022-12-06T21:34:46.412Z,4.80
2022-12-06T21:37:35.216Z,4.70
2022-12-06T21:40:22.642Z,4.70
2022-12-06T21:43:13.942Z,4.70
2022-12-06T21:46:08.896Z,4.80
2022-12-06T21:48:57.507Z,4.80
2022-12-06T21:51:45.591Z,4.80
2022-12-06T21:54:33.072Z,4.80
2022-12-06T21:57:20.403Z,5.80
2022-12-06T22:00:10.080Z,4.80
2022-12-06T22:03:00.642Z,4.80
2022-12-06T22:05:49.254Z,5.20
2022-12-06T22:08:37.468Z,4.80
2022-12-06T22:11:26.331Z,4.90
2022-12-06T22:14:18.371Z,4.60
2022-12-06T22:17:08.033Z,4.70
2022-12-06T22:19:56.723Z,4.80
2022-12-06T22:22:45.871Z,4.80
2022-12-06T22:25:34.389Z,4.70
2022-12-06T22:28:24.738Z,4.60
2022-12-06T22:31:15.864Z,4.90
2022-12-06T22:34:04.800Z,4.30
2022-12-06T22:36:52.930Z,4.40
2022-12-06T22:39:41.584Z,4.40
2022-12-06T22:42:32.311Z,4.50
2022-12-06T22:45:19.964Z,4.40
2022-12-06T22:48:07.557Z,4.60
2022-12-06T22:50:57.016Z,4.50
2022-12-06T22:53:46.489Z,4.50
2022-12-06T22:56:34.585Z,4.50
2022-12-06T22:59:22.240Z,4.50
2022-12-06T23:02:10.039Z,4.50
2022-12-06T23:04:57.958Z,4.50
2022-12-06T23:07:46.956Z,4.50
2022-12-06T23:10:34.759Z,4.50
2022-12-06T23:13:22.506Z,4.40
2022-12-06T23:16:12.272Z,4.90
2022-12-06T23:19:00.986Z,4.60
2022-12-06T23:21:50.481Z,4.40
2022-12-06T23:24:39.555Z,4.50
2022-12-06T23:27:28.282Z,4.50
2022-12-06T23:30:15.919Z,4.50
2022-12-06T23:33:03.652Z,4.50
2022-12-06T23:35:51.286Z,4.50
2022-12-06T23:38:39.042Z,4.50
2022-12-06T23:41:29.668Z,4.40
2022-12-06T23:44:17.584Z,4.40
2022-12-06T23:47:06.032Z,4.40
2022-12-06T23:49:54.042Z,5.00
2022-12-06T23:52:41.384Z,4.40
2022-12-06T23:55:29.998Z,4.40
2022-12-06T23:58:20.109Z,4.30
